CW3224 Weather Reports


Display with metric or nautical units.
time (UTC)temp
F
wind
direction
speed
MPH
gust
MPH
rain 1hr
in
rain 24hr
in
rain mn
in
humidity
%
barometer
mb
20200408000137 50 188 0.0 0.0 0.00 0.00 0.00 46 1005.9
20200407235134 50 188 0.0 0.0 0.00 0.00 0.00 46 1005.9
20200407234130 51 188 0.0 0.0 0.00 0.00 0.00 43 1005.9
20200407233129 52 188 0.0 0.0 0.00 0.00 0.00 44 1005.8
20200407232126 53 188 0.0 0.0 0.00 0.00 0.00 39 1005.8
20200407231125 54 188 0.0 0.0 0.00 0.00 0.00 35 1005.8
20200407230125 55 188 0.0 0.0 0.00 0.00 0.00 35 1005.9
20200407225121 55 188 0.0 0.0 0.00 0.00 0.00 33 1005.7
20200407224125 56 188 0.0 0.0 0.00 0.00 0.00 32 1005.7
20200407223120 56 188 0.0 2.0 0.00 0.00 0.00 36 1005.7
20200407222119 57 188 0.0 2.0 0.00 0.00 0.00 31 1005.7
20200407221116 58 224 1.0 3.0 0.00 0.00 0.00 29 1005.7
20200407220116 58 224 0.0 3.0 0.00 0.00 0.00 27 1005.9
20200407215115 58 48 0.0 1.0 0.00 0.00 0.00 27 1006.2
20200407214114 59 48 1.0 3.0 0.00 0.00 0.00 28 1006.2
20200407213111 59 355 1.0 3.0 0.00 0.00 0.00 29 1006.2
20200407212111 59 267 2.0 6.0 0.00 0.00 0.00 27 1006.2
20200407211111 59 46 2.0 8.0 0.00 0.00 0.00 26 1006.2
20200407210114 60 233 1.0 6.0 0.00 0.00 0.00 25 1006.4
20200407205111 60 233 1.0 5.0 0.00 0.00 0.00 26 1006.4
20200407204111 61 7 2.0 5.0 0.00 0.00 0.00 25 1006.4
20200407203111 60 283 1.0 3.0 0.00 0.00 0.00 27 1006.6
20200407202111 60 216 2.0 6.0 0.00 0.00 0.00 27 1006.7
20200407201226 60 230 2.0 7.0 0.00 0.00 0.00 29 1006.7
20200407200112 60 88 2.0 7.0 0.00 0.00 0.00 26 1006.7
20200407195110 60 8 2.0 7.0 0.00 0.00 0.00 26 1006.8
20200407194109 60 256 2.0 7.0 0.00 0.00 0.00 24 1006.8
20200407193104 60 241 3.0 7.0 0.00 0.00 0.00 26 1007.1
20200407192103 61 206 3.0 8.0 0.00 0.00 0.00 24 1007.2
20200407191103 60 185 3.0 7.0 0.00 0.00 0.00 24 1007.2
20200407190102 62 338 3.0 8.0 0.00 0.00 0.00 24 1007.7
20200407185104 61 256 5.0 12.0 0.00 0.00 0.00 27 1007.9
20200407184103 61 153 3.0 10.0 0.00 0.00 0.00 29 1007.9
20200407183103 62 290 2.0 10.0 0.00 0.00 0.00 25 1008.2
20200407182103 61 121 2.0 6.0 0.00 0.00 0.00 24 1008.6
20200407181103 62 60 3.0 9.0 0.00 0.00 0.00 26 1008.6
20200407180103 61 185 3.0 8.0 0.00 0.00 0.00 29 1008.8
20200407175102 61 25 3.0 7.0 0.00 0.00 0.00 29 1009.2
20200407174103 60 329 2.0 5.0 0.00 0.00 0.00 26 1009.2
20200407173059 60 35 3.0 8.0 0.00 0.00 0.00 27 1009.3
20200407172100 58 347 2.0 7.0 0.00 0.00 0.00 30 1009.8
20200407171059 59 61 3.0 12.0 0.00 0.00 0.00 26 1009.8
20200407170059 59 273 3.0 8.0 0.00 0.00 0.00 27 1009.9
20200407165059 58 285 3.0 7.0 0.00 0.00 0.00 28 1010.2
20200407164058 59 285 3.0 7.0 0.00 0.00 0.00 31 1010.2
20200407163059 59 8 2.0 8.0 0.00 0.00 0.00 34 1010.3
20200407162100 59 222 2.0 7.0 0.00 0.00 0.00 31 1010.4
20200407161055 59 317 3.0 11.0 0.00 0.00 0.00 34 1010.4
20200407160055 56 207 2.0 10.0 0.00 0.00 0.00 34 1010.4
20200407155055 57 301 4.0 14.0 0.00 0.00 0.00 34 1010.7
20200407154053 56 7 3.0 10.0 0.00 0.00 0.00 31 1010.7
20200407153053 56 301 1.0 5.0 0.00 0.00 0.00 36 1010.9
20200407152155 55 24 2.0 7.0 0.00 0.00 0.00 34 1011.1
20200407151052 56 113 2.0 6.0 0.00 0.00 0.00 35 1011.1
20200407150045 57 258 2.0 6.0 0.00 0.00 0.00 35 1011.4
20200407145043 56 316 1.0 5.0 0.00 0.00 0.00 35 1011.5
20200407144041 55 301 3.0 8.0 0.00 0.00 0.00 34 1011.5
20200407143041 55 44 3.0 7.0 0.00 0.00 0.00 34 1011.8
20200407142040 54 82 5.0 8.0 0.00 0.00 0.00 36 1011.9
20200407141041 54 301 2.0 6.0 0.00 0.00 0.00 39 1011.9
20200407140042 54 240 2.0 4.0 0.00 0.00 0.00 37 1011.9
20200407135036 53 287 2.0 8.0 0.00 0.00 0.00 39 1011.8
20200407134037 53 262 2.0 6.0 0.00 0.00 0.00 41 1011.8
20200407133037 51 289 1.0 3.0 0.00 0.00 0.00 40 1011.9
20200407132036 51 301 2.0 5.0 0.00 0.00 0.00 42 1012.0
20200407131036 50 46 1.0 5.0 0.00 0.00 0.00 43 1012.0
20200407130036 50 268 1.0 4.0 0.00 0.00 0.00 48 1012.0
20200407125036 49 236 1.0 4.0 0.00 0.00 0.00 47 1012.3
20200407124037 47 244 0.0 0.0 0.00 0.00 0.00 49 1012.3
20200407123036 44 161 0.0 0.0 0.00 0.00 0.00 59 1012.4
20200407122034 41 176 0.0 0.0 0.00 0.00 0.00 67 1012.4
20200407121033 40 178 0.0 0.0 0.00 0.00 0.00 73 1012.4
20200407120031 40 178 0.0 0.0 0.00 0.00 0.00 73 1012.5
20200407115029 39 178 0.0 0.0 0.00 0.00 0.00 74 1012.5
20200407114029 39 178 0.0 0.0 0.00 0.00 0.00 73 1012.5
20200407113024 38 178 0.0 0.0 0.00 0.00 0.00 74 1012.4
20200407112022 38 178 0.0 0.0 0.00 0.00 0.00 73 1012.4
20200407111020 37 178 0.0 0.0 0.00 0.00 0.00 72 1012.4
20200407110019 37 178 0.0 0.0 0.00 0.00 0.00 69 1012.4
20200407105018 36 178 0.0 0.0 0.00 0.00 0.00 72 1012.4
20200407104018 34 178 0.0 0.0 0.00 0.00 0.00 74 1012.4
20200407103018 34 178 0.0 0.0 0.00 0.00 0.00 73 1012.2
20200407102019 34 178 0.0 0.0 0.00 0.00 0.00 72 1012.0
20200407101016 34 178 0.0 0.0 0.00 0.00 0.00 69 1012.0
20200407100015 33 185 0.0 0.0 0.00 0.00 0.00 69 1011.9
20200407095015 34 254 0.0 0.0 0.00 0.00 0.00 68 1011.8
20200407094012 34 254 0.0 0.0 0.00 0.00 0.00 67 1011.8
20200407093008 35 254 0.0 0.0 0.00 0.00 0.00 67 1011.8
20200407092004 35 254 0.0 0.0 0.00 0.00 0.00 65 1011.7
20200407091002 36 254 0.0 0.0 0.00 0.00 0.00 64 1011.7
20200407085957 36 254 0.0 0.0 0.00 0.00 0.00 69 1011.7
20200407084955 37 254 0.0 0.0 0.00 0.00 0.00 71 1011.8
20200407083952 37 254 0.0 0.0 0.00 0.00 0.00 65 1011.8
20200407082951 38 254 0.0 0.0 0.00 0.00 0.00 60 1011.6
20200407081953 39 254 0.0 0.0 0.00 0.00 0.00 56 1011.7
20200407080948 39 254 0.0 0.0 0.00 0.00 0.00 55 1011.7
20200407075948 40 254 0.0 0.0 0.00 0.00 0.00 57 1011.7
20200407074946 40 254 0.0 0.0 0.00 0.00 0.00 62 1011.8
20200407073947 40 254 0.0 0.0 0.00 0.00 0.00 68 1011.8
20200407072947 40 254 0.0 0.0 0.00 0.00 0.00 65 1011.8
20200407071947 40 254 0.0 0.0 0.00 0.00 0.00 70 1011.9
20200407070937 40 257 0.0 0.0 0.00 0.00 0.00 64 1011.9
20200407065936 40 257 0.0 0.0 0.00 0.00 0.00 70 1011.9
20200407064937 41 257 0.0 0.0 0.00 0.00 0.00 61 1012.0
20200407063936 40 257 0.0 0.0 0.00 0.00 0.00 70 1012.0
20200407062935 39 257 0.0 0.0 0.00 0.00 0.00 72 1012.2
20200407061934 39 257 0.0 0.0 0.00 0.00 0.00 70 1012.3
20200407060933 39 257 0.0 0.0 0.00 0.00 0.00 70 1012.3
20200407055935 39 257 0.0 0.0 0.00 0.00 0.00 73 1012.4
20200407054932 38 257 0.0 0.0 0.00 0.00 0.00 71 1012.4
20200407053931 38 257 0.0 0.0 0.00 0.00 0.00 72 1012.4
20200407052933 39 257 0.0 0.0 0.00 0.00 0.00 72 1012.3
20200407051925 39 257 0.0 0.0 0.00 0.00 0.00 70 1012.4
20200407050922 39 257 0.0 0.0 0.00 0.00 0.00 68 1012.4
20200407045922 39 257 0.0 0.0 0.00 0.00 0.00 64 1012.4
20200407044920 39 257 0.0 0.0 0.00 0.00 0.00 61 1012.5
20200407043915 39 257 0.0 0.0 0.00 0.00 0.00 61 1012.5
20200407042907 39 257 0.0 0.0 0.00 0.00 0.00 62 1012.4
20200407041909 40 257 0.0 0.0 0.00 0.00 0.00 57 1012.4
20200407040908 40 257 0.0 0.0 0.00 0.00 0.00 56 1012.4
20200407035908 41 257 0.0 0.0 0.00 0.00 0.00 55 1012.3
20200407034901 41 257 0.0 0.0 0.00 0.00 0.00 55 1012.3
20200407033901 41 257 0.0 0.0 0.00 0.00 0.00 57 1012.3
20200407032900 41 257 0.0 0.0 0.00 0.00 0.00 56 1012.3
20200407031856 40 257 0.0 0.0 0.00 0.00 0.00 57 1012.1
20200407030855 41 257 0.0 0.0 0.00 0.00 0.00 55 1012.1
20200407025855 41 257 0.0 0.0 0.00 0.00 0.00 57 1012.1
20200407024852 40 257 0.0 0.0 0.00 0.00 0.00 60 1012.1
20200407023853 39 257 0.0 0.0 0.00 0.00 0.00 63 1012.1
20200407022853 40 257 0.0 0.0 0.00 0.00 0.00 63 1012.0
20200407021850 40 7 0.0 0.0 0.00 0.00 0.00 62 1012.1
20200407020849 39 7 0.0 0.0 0.00 0.00 0.00 60 1012.1
20200407015849 40 8 0.0 0.0 0.00 0.00 0.00 63 1012.1
20200407014847 41 163 0.0 0.0 0.00 0.00 0.00 58 1011.9
20200407013844 42 163 0.0 0.0 0.00 0.00 0.00 56 1011.9
20200407012845 43 163 0.0 0.0 0.00 0.00 0.00 53 1011.8
20200407011843 43 163 0.0 0.0 0.00 0.00 0.00 50 1011.9
20200407010840 44 163 0.0 0.0 0.00 0.00 0.00 49 1011.9
20200407005838 44 163 0.0 0.0 0.00 0.00 0.00 48 1011.9
20200407004840 45 163 0.0 0.0 0.00 0.00 0.00 45 1011.8
20200407003838 46 163 0.0 0.0 0.00 0.00 0.00 43 1011.8
20200407002837 47 163 0.0 0.0 0.00 0.00 0.00 42 1011.8
20200407001834 48 163 0.0 0.0 0.00 0.00 0.00 40 1011.7